createdAt,value
2018-07-21T00:02:55.316Z,2.77
2018-07-21T00:06:58.987Z,2.90
2018-07-21T00:11:02.679Z,2.43
2018-07-21T00:15:06.432Z,2.43
2018-07-21T00:19:10.114Z,2.33
2018-07-21T00:23:13.780Z,2.47
2018-07-21T00:27:17.503Z,2.77
2018-07-21T00:31:21.184Z,2.60
2018-07-21T00:35:24.804Z,2.00
2018-07-21T00:39:28.453Z,2.20
2018-07-21T00:43:32.125Z,2.20
2018-07-21T00:47:35.840Z,2.30
2018-07-21T00:51:39.527Z,2.23
2018-07-21T00:55:43.214Z,2.63
2018-07-21T00:59:46.927Z,2.50
2018-07-21T01:03:50.690Z,2.53
2018-07-21T01:07:54.394Z,2.70
2018-07-21T01:11:58.916Z,3.27
2018-07-21T01:16:02.624Z,2.50
2018-07-21T01:20:06.954Z,2.40
2018-07-21T01:24:10.612Z,2.03
2018-07-21T01:28:14.266Z,2.27
2018-07-21T01:32:18.019Z,2.50
2018-07-21T01:36:21.731Z,2.20
2018-07-21T01:40:25.447Z,2.73
2018-07-21T01:44:29.111Z,1.90
2018-07-21T01:48:32.759Z,2.47
2018-07-21T01:52:36.435Z,2.50
2018-07-21T01:56:40.103Z,2.73
2018-07-21T02:00:43.762Z,2.00
2018-07-21T02:04:47.520Z,2.80
2018-07-21T02:08:51.169Z,2.60
2018-07-21T02:12:54.945Z,2.57
2018-07-21T02:16:58.641Z,2.33
2018-07-21T02:21:02.259Z,2.40
2018-07-21T02:25:05.958Z,2.30
2018-07-21T02:29:09.611Z,1.80
2018-07-21T02:33:13.264Z,2.23
2018-07-21T02:37:16.944Z,2.00
2018-07-21T02:41:20.614Z,2.30
2018-07-21T02:45:24.289Z,2.53
2018-07-21T02:49:27.945Z,2.67
2018-07-21T02:53:31.688Z,2.47
2018-07-21T02:57:35.356Z,2.30
2018-07-21T03:01:39.007Z,2.03
2018-07-21T03:05:42.720Z,2.30
2018-07-21T03:09:46.432Z,2.27
2018-07-21T03:13:50.089Z,2.03
2018-07-21T03:17:53.741Z,2.13
2018-07-21T03:21:57.460Z,2.43
2018-07-21T03:26:01.126Z,2.30
2018-07-21T03:30:04.924Z,2.30
2018-07-21T03:34:08.602Z,2.50
2018-07-21T03:38:12.264Z,2.40
2018-07-21T03:42:15.948Z,2.57
2018-07-21T03:46:20.312Z,2.43
2018-07-21T03:50:24.067Z,2.13
2018-07-21T03:54:27.756Z,2.30
2018-07-21T03:58:31.443Z,1.97
2018-07-21T04:02:35.088Z,2.30
2018-07-21T04:06:38.755Z,2.10
2018-07-21T04:10:42.454Z,2.33
2018-07-21T04:14:46.103Z,2.33
2018-07-21T04:18:49.835Z,2.17
2018-07-21T04:22:53.488Z,2.30
2018-07-21T04:26:57.161Z,1.97
2018-07-21T04:31:00.823Z,1.83
2018-07-21T04:35:04.577Z,2.00
2018-07-21T04:39:10.054Z,2.07
2018-07-21T04:43:13.678Z,1.67
2018-07-21T04:47:17.300Z,2.30
2018-07-21T04:51:21.097Z,1.97
2018-07-21T04:55:24.816Z,2.40
2018-07-21T04:59:28.495Z,2.20
2018-07-21T05:03:32.238Z,2.13
2018-07-21T05:07:35.851Z,2.20
2018-07-21T05:11:39.878Z,1.83
2018-07-21T05:15:43.531Z,2.30
2018-07-21T05:19:47.187Z,2.10
2018-07-21T05:23:50.861Z,1.93
2018-07-21T05:27:54.511Z,2.47
2018-07-21T05:31:58.161Z,2.43
2018-07-21T05:36:01.815Z,1.80
2018-07-21T05:40:05.526Z,2.17
2018-07-21T05:44:09.175Z,2.90
2018-07-21T05:48:12.837Z,2.00
2018-07-21T05:52:16.485Z,2.67
2018-07-21T05:56:20.776Z,2.33
2018-07-21T06:00:26.355Z,2.07
2018-07-21T06:04:30.005Z,1.77
2018-07-21T06:08:33.647Z,2.57
2018-07-21T06:12:37.361Z,2.03
2018-07-21T06:16:41.237Z,2.20
2018-07-21T06:20:44.927Z,2.00
2018-07-21T06:24:48.576Z,2.07
2018-07-21T06:28:52.247Z,2.07
2018-07-21T06:32:55.923Z,2.37
2018-07-21T06:36:59.591Z,2.00
2018-07-21T06:41:03.240Z,2.43
2018-07-21T06:45:06.915Z,2.27
2018-07-21T06:49:10.629Z,2.53
2018-07-21T06:53:14.283Z,2.37
2018-07-21T06:57:17.957Z,1.90
2018-07-21T07:01:21.769Z,1.83
2018-07-21T07:05:25.391Z,2.07
2018-07-21T07:09:29.021Z,2.33
2018-07-21T07:13:32.659Z,1.77
2018-07-21T07:17:36.349Z,2.13
2018-07-21T07:21:40.002Z,2.23
2018-07-21T07:25:43.664Z,1.80
2018-07-21T07:29:47.285Z,2.10
2018-07-21T07:33:50.938Z,2.30
2018-07-21T07:37:54.677Z,2.47
2018-07-21T07:41:58.340Z,2.20
2018-07-21T07:46:02.031Z,1.80
2018-07-21T07:50:05.934Z,2.30
2018-07-21T07:54:09.610Z,1.73
2018-07-21T07:58:13.297Z,2.30
2018-07-21T08:02:16.948Z,2.23
2018-07-21T08:06:20.636Z,2.40
2018-07-21T08:10:24.252Z,2.20
2018-07-21T08:14:27.979Z,2.20
2018-07-21T08:18:31.676Z,2.27
2018-07-21T08:22:35.308Z,2.50
2018-07-21T08:26:38.983Z,2.30
2018-07-21T08:30:42.589Z,2.27
2018-07-21T08:34:46.434Z,2.30
2018-07-21T08:38:50.044Z,2.43
2018-07-21T08:42:53.680Z,2.60
2018-07-21T08:46:57.353Z,2.53
2018-07-21T08:51:00.997Z,2.67
2018-07-21T08:55:04.815Z,2.57
2018-07-21T08:59:08.496Z,2.30
2018-07-21T09:03:12.130Z,2.27
2018-07-21T09:07:15.787Z,2.47
2018-07-21T09:11:19.411Z,2.30
2018-07-21T09:15:23.108Z,2.20
2018-07-21T09:19:27.102Z,2.27
2018-07-21T09:23:30.794Z,3.13
2018-07-21T09:27:34.472Z,2.50
2018-07-21T09:31:38.159Z,2.33
2018-07-21T09:35:41.813Z,2.33
2018-07-21T09:39:45.568Z,2.87
2018-07-21T09:43:49.203Z,2.60
2018-07-21T09:47:52.861Z,2.70
2018-07-21T09:51:56.840Z,2.60
2018-07-21T09:56:00.671Z,3.27
2018-07-21T10:00:05.189Z,2.50
2018-07-21T10:04:08.842Z,3.03
2018-07-21T10:08:12.459Z,2.87
2018-07-21T10:12:16.199Z,2.60
2018-07-21T10:16:19.924Z,2.57
2018-07-21T10:20:23.608Z,3.07
2018-07-21T10:24:32.540Z,2.47
2018-07-21T10:28:41.476Z,2.37
2018-07-21T10:32:45.149Z,3.03
2018-07-21T10:36:48.858Z,2.37
2018-07-21T10:40:52.498Z,2.53
2018-07-21T10:44:56.159Z,2.93
2018-07-21T10:48:59.828Z,3.07
2018-07-21T10:53:03.493Z,3.27
2018-07-21T10:57:07.228Z,3.43
2018-07-21T11:01:10.904Z,2.80
2018-07-21T11:05:14.569Z,2.67
2018-07-21T11:09:18.260Z,2.90
2018-07-21T11:13:21.938Z,3.13
2018-07-21T11:17:25.582Z,3.17
2018-07-21T11:21:29.255Z,3.30
2018-07-21T11:25:33.005Z,2.90
2018-07-21T11:29:36.680Z,3.10
2018-07-21T11:33:40.328Z,3.10
2018-07-21T11:37:44.013Z,3.20
2018-07-21T11:41:47.652Z,3.40
2018-07-21T11:45:51.325Z,3.50
2018-07-21T11:49:54.973Z,3.43
2018-07-21T11:53:58.690Z,2.80
2018-07-21T11:58:02.468Z,3.37
2018-07-21T12:02:06.178Z,3.20
2018-07-21T12:06:09.843Z,3.73
2018-07-21T12:10:13.546Z,2.90
2018-07-21T12:14:17.223Z,3.30
2018-07-21T12:18:20.934Z,3.23
2018-07-21T12:22:24.586Z,3.60
2018-07-21T12:26:28.297Z,3.60
2018-07-21T12:30:31.946Z,3.50
2018-07-21T12:34:35.704Z,3.57
2018-07-21T12:38:39.321Z,3.40
2018-07-21T12:42:43.126Z,3.40
2018-07-21T12:46:46.877Z,2.70
2018-07-21T12:50:50.551Z,2.97
2018-07-21T12:54:55.588Z,3.70
2018-07-21T12:58:59.256Z,3.33
2018-07-21T13:03:02.933Z,3.83
2018-07-21T13:07:06.734Z,3.17
2018-07-21T13:11:10.408Z,4.33
2018-07-21T13:15:14.052Z,3.83
2018-07-21T13:19:17.664Z,3.57
2018-07-21T13:23:21.434Z,3.80
2018-07-21T13:27:25.141Z,3.53
2018-07-21T13:31:28.879Z,3.60
2018-07-21T13:35:32.523Z,3.93
2018-07-21T13:39:36.124Z,3.73
2018-07-21T13:43:39.813Z,3.93
2018-07-21T13:47:43.548Z,3.60
2018-07-21T13:51:47.191Z,3.80
2018-07-21T13:55:50.846Z,3.70
2018-07-21T13:59:54.572Z,3.90
2018-07-21T14:03:58.236Z,3.53
2018-07-21T14:08:01.889Z,3.47
2018-07-21T14:12:05.773Z,3.77
2018-07-21T14:16:09.479Z,4.13
2018-07-21T14:20:13.164Z,4.03
2018-07-21T14:24:16.772Z,3.40
2018-07-21T14:28:20.466Z,3.57
2018-07-21T14:32:24.126Z,3.10
2018-07-21T14:36:27.896Z,3.87
2018-07-21T14:40:31.459Z,3.57
2018-07-21T14:44:35.199Z,3.80
2018-07-21T14:48:38.962Z,3.37
2018-07-21T14:52:42.676Z,3.93
2018-07-21T14:56:46.325Z,4.57
2018-07-21T15:00:50.031Z,3.80
2018-07-21T15:04:53.639Z,4.27
2018-07-21T15:08:57.297Z,3.93
2018-07-21T15:13:00.964Z,3.70
2018-07-21T15:17:04.643Z,3.77
2018-07-21T15:21:08.283Z,3.70
2018-07-21T15:25:12.230Z,4.07
2018-07-21T15:29:15.956Z,4.00
2018-07-21T15:33:19.608Z,3.90
2018-07-21T15:37:23.263Z,4.47
2018-07-21T15:41:26.934Z,3.80
2018-07-21T15:45:30.583Z,3.70
2018-07-21T15:49:34.285Z,4.70
2018-07-21T15:53:37.951Z,4.13
2018-07-21T15:57:41.661Z,3.67
2018-07-21T16:01:45.342Z,4.23
2018-07-21T16:05:48.967Z,3.93
2018-07-21T16:09:52.639Z,4.37
2018-07-21T16:13:56.369Z,4.63
2018-07-21T16:18:00.019Z,3.90
2018-07-21T16:22:03.709Z,3.90
2018-07-21T16:26:07.396Z,4.20
2018-07-21T16:30:11.159Z,4.93
2018-07-21T16:34:14.829Z,4.53
2018-07-21T16:38:18.509Z,4.17
2018-07-21T16:42:22.167Z,3.93
2018-07-21T16:46:25.847Z,4.57
2018-07-21T16:50:29.503Z,4.33
2018-07-21T16:54:33.207Z,5.37
2018-07-21T16:58:36.888Z,4.17
2018-07-21T17:02:40.543Z,4.20
2018-07-21T17:06:44.186Z,5.30
2018-07-21T17:10:47.875Z,4.07
2018-07-21T17:14:51.521Z,4.43
2018-07-21T17:18:55.173Z,4.20
2018-07-21T17:22:58.848Z,4.03
2018-07-21T17:27:02.547Z,4.60
2018-07-21T17:31:06.246Z,4.83
2018-07-21T17:35:09.899Z,4.03
2018-07-21T17:39:13.627Z,4.33
2018-07-21T17:43:17.295Z,4.60
2018-07-21T17:47:20.955Z,4.60
2018-07-21T17:51:24.649Z,3.83
2018-07-21T17:55:28.313Z,4.60
2018-07-21T17:59:31.987Z,4.83
2018-07-21T18:03:35.655Z,4.10
2018-07-21T18:07:39.271Z,4.77
2018-07-21T18:11:42.899Z,4.70
2018-07-21T18:15:46.604Z,3.73
2018-07-21T18:19:50.274Z,4.27
2018-07-21T18:23:53.940Z,4.37
2018-07-21T18:27:57.591Z,4.90
2018-07-21T18:32:01.287Z,4.63
2018-07-21T18:36:05.013Z,5.17
2018-07-21T18:44:02.894Z,5.40
2018-07-21T18:48:06.647Z,5.43
2018-07-21T18:52:10.371Z,5.23
2018-07-21T18:56:14.037Z,4.97
2018-07-21T19:00:17.741Z,5.10
2018-07-21T19:04:21.373Z,5.70
2018-07-21T19:08:29.236Z,5.23
2018-07-21T19:12:49.439Z,5.23
2018-07-21T19:16:53.189Z,5.47
2018-07-21T19:21:02.225Z,5.20
2018-07-21T19:25:11.247Z,7.47
2018-07-21T19:29:14.907Z,7.07
2018-07-21T19:33:18.648Z,6.30
2018-07-21T19:37:27.575Z,5.13
2018-07-21T19:41:36.514Z,5.17
2018-07-21T19:45:40.174Z,4.80
2018-07-21T19:49:43.896Z,5.37
2018-07-21T19:53:47.654Z,5.00
2018-07-21T19:57:51.329Z,5.60
2018-07-21T20:01:54.983Z,6.30
2018-07-21T20:05:58.942Z,4.80
2018-07-21T20:10:03.531Z,6.13
2018-07-21T20:14:07.299Z,5.70
2018-07-21T20:18:11.358Z,5.77
2018-07-21T20:22:15.063Z,5.53
2018-07-21T20:26:18.696Z,6.17
2018-07-21T20:30:22.360Z,6.27
2018-07-21T20:34:26.016Z,5.80
2018-07-21T20:38:29.657Z,5.93
2018-07-21T20:42:33.671Z,5.43
2018-07-21T20:46:38.415Z,6.00
2018-07-21T20:50:42.323Z,6.23
2018-07-21T20:54:45.955Z,5.73
2018-07-21T20:58:49.639Z,6.47
2018-07-21T21:02:53.298Z,7.03
2018-07-21T21:06:56.923Z,6.20
2018-07-21T21:11:00.598Z,6.90
2018-07-21T21:15:04.684Z,6.10
2018-07-21T21:19:08.366Z,6.00
2018-07-21T21:23:12.024Z,6.33
2018-07-21T21:27:15.658Z,6.63
2018-07-21T21:31:19.582Z,6.67
2018-07-21T21:35:23.227Z,7.10
2018-07-21T21:39:26.880Z,7.00
2018-07-21T21:43:30.478Z,7.10
2018-07-21T21:47:34.222Z,7.37
2018-07-21T21:51:37.892Z,6.90
2018-07-21T21:55:41.579Z,8.03
2018-07-21T21:59:45.237Z,7.07
2018-07-21T22:03:48.852Z,8.00
2018-07-21T22:07:52.495Z,8.50
2018-07-21T22:11:56.124Z,8.00
2018-07-21T22:16:00.274Z,7.93
2018-07-21T22:20:04.024Z,10.10
2018-07-21T22:24:07.687Z,10.30
2018-07-21T22:28:11.401Z,10.70
2018-07-21T22:32:14.715Z,9.93
2018-07-21T22:36:18.380Z,10.40
2018-07-21T22:40:22.051Z,9.43
2018-07-21T22:44:25.669Z,9.93
2018-07-21T22:48:29.363Z,9.53
2018-07-21T22:52:33.110Z,8.90
2018-07-21T22:56:36.771Z,9.93
2018-07-21T23:00:40.489Z,9.63
2018-07-21T23:04:44.111Z,9.77
2018-07-21T23:08:47.769Z,9.90
2018-07-21T23:12:51.459Z,9.50
2018-07-21T23:16:55.149Z,10.30
2018-07-21T23:20:58.875Z,10.63
2018-07-21T23:25:02.551Z,10.00
2018-07-21T23:29:06.223Z,9.93
2018-07-21T23:33:09.903Z,9.27
2018-07-21T23:37:13.568Z,9.67
2018-07-21T23:41:17.196Z,9.23
2018-07-21T23:45:20.916Z,10.30
2018-07-21T23:49:24.582Z,10.37
2018-07-21T23:53:28.231Z,9.90
2018-07-21T23:57:31.935Z,10.10
